<?xml version="1.0" encoding="UTF-8" standalone="no" ?>
<gpx xmlns="http://www.topografix.com/GPX/1/1" creator="MapSource 6.11.6" version="1.1" xmlns:xsi="http://www.w3.org/2001/XMLSchema-instance" xsi:schemaLocation="http://www.topografix.com/GPX/1/1 http://www.topografix.com/GPX/1/1/gpx.xsd">

  <metadata>
    <link href="http://www.garmin.com">
      <text>Garmin International</text>
    </link>
    <time>2009-10-19T17:39:45Z</time>
    <bounds maxlat="50.658060" maxlon="6.447211" minlat="50.650348" minlon="6.412715"/>
  </metadata>

  <trk>
    <name>Buschfelderhof 3</name>
    <extensions>
      <gpxx:TrackExtension xmlns:gpxx="http://www.garmin.com/xmlschemas/GpxExtensions/v3" xmlns:xsi="http://www.w3.org/2001/XMLSchema-instance" xsi:schemaLocation="http://www.garmin.com/xmlschemas/GpxExtensions/v3 http://www.garmin.com/xmlschemas/GpxExtensions/v3/GpxExtensionsv3.xsd">
        <gpxx:DisplayColor>White</gpxx:DisplayColor>
      </gpxx:TrackExtension>
    </extensions>
    <trkseg>
      <trkpt lat="50.652184" lon="6.427002">
        <ele>323.620000</ele>
        <time>2009-10-18T08:52:38Z</time>
      </trkpt>
      <trkpt lat="50.652278" lon="6.427009">
        <ele>320.740000</ele>
        <time>2009-10-18T08:52:52Z</time>
      </trkpt>
      <trkpt lat="50.652353" lon="6.427142">
        <ele>319.300000</ele>
        <time>2009-10-18T08:53:04Z</time>
      </trkpt>
      <trkpt lat="50.652444" lon="6.427363">
        <ele>316.890000</ele>
        <time>2009-10-18T08:53:23Z</time>
      </trkpt>
      <trkpt lat="50.652380" lon="6.427470">
        <ele>315.450000</ele>
        <time>2009-10-18T08:53:37Z</time>
      </trkpt>
      <trkpt lat="50.652158" lon="6.427512">
        <ele>313.530000</ele>
        <time>2009-10-18T08:53:52Z</time>
      </trkpt>
      <trkpt lat="50.651986" lon="6.427540">
        <ele>312.090000</ele>
        <time>2009-10-18T08:54:03Z</time>
      </trkpt>
      <trkpt lat="50.651839" lon="6.427527">
        <ele>309.200000</ele>
        <time>2009-10-18T08:54:23Z</time>
      </trkpt>
      <trkpt lat="50.651618" lon="6.427617">
        <ele>306.320000</ele>
        <time>2009-10-18T08:54:43Z</time>
      </trkpt>
      <trkpt lat="50.651464" lon="6.427686">
        <ele>303.430000</ele>
        <time>2009-10-18T08:54:59Z</time>
      </trkpt>
      <trkpt lat="50.651561" lon="6.427698">
        <ele>303.910000</ele>
        <time>2009-10-18T08:55:16Z</time>
      </trkpt>
      <trkpt lat="50.651619" lon="6.427655">
        <ele>304.880000</ele>
        <time>2009-10-18T08:55:22Z</time>
      </trkpt>
      <trkpt lat="50.651924" lon="6.427622">
        <ele>307.760000</ele>
        <time>2009-10-18T08:55:44Z</time>
      </trkpt>
      <trkpt lat="50.652086" lon="6.427637">
        <ele>309.200000</ele>
        <time>2009-10-18T08:55:58Z</time>
      </trkpt>
      <trkpt lat="50.652374" lon="6.427650">
        <ele>312.090000</ele>
        <time>2009-10-18T08:56:21Z</time>
      </trkpt>
      <trkpt lat="50.652518" lon="6.427802">
        <ele>313.530000</ele>
        <time>2009-10-18T08:56:39Z</time>
      </trkpt>
      <trkpt lat="50.652580" lon="6.428190">
        <ele>315.450000</ele>
        <time>2009-10-18T08:56:58Z</time>
      </trkpt>
      <trkpt lat="50.652677" lon="6.428474">
        <ele>318.330000</ele>
        <time>2009-10-18T08:57:17Z</time>
      </trkpt>
      <trkpt lat="50.652708" lon="6.428789">
        <ele>320.740000</ele>
        <time>2009-10-18T08:57:34Z</time>
      </trkpt>
      <trkpt lat="50.652798" lon="6.429118">
        <ele>322.180000</ele>
        <time>2009-10-18T08:57:55Z</time>
      </trkpt>
      <trkpt lat="50.652819" lon="6.429212">
        <ele>322.660000</ele>
        <time>2009-10-18T08:57:59Z</time>
      </trkpt>
      <trkpt lat="50.652965" lon="6.429543">
        <ele>323.620000</ele>
        <time>2009-10-18T08:58:18Z</time>
      </trkpt>
      <trkpt lat="50.653044" lon="6.429762">
        <ele>324.580000</ele>
        <time>2009-10-18T08:58:35Z</time>
      </trkpt>
      <trkpt lat="50.653048" lon="6.429802">
        <ele>324.580000</ele>
        <time>2009-10-18T08:58:37Z</time>
      </trkpt>
      <trkpt lat="50.653125" lon="6.430053">
        <ele>324.580000</ele>
        <time>2009-10-18T08:58:50Z</time>
      </trkpt>
      <trkpt lat="50.653138" lon="6.430080">
        <ele>325.060000</ele>
        <time>2009-10-18T08:58:52Z</time>
      </trkpt>
      <trkpt lat="50.653204" lon="6.430251">
        <ele>325.060000</ele>
        <time>2009-10-18T08:58:59Z</time>
      </trkpt>
      <trkpt lat="50.653273" lon="6.430383">
        <ele>325.540000</ele>
        <time>2009-10-18T08:59:12Z</time>
      </trkpt>
      <trkpt lat="50.653527" lon="6.430581">
        <ele>327.950000</ele>
        <time>2009-10-18T08:59:33Z</time>
      </trkpt>
      <trkpt lat="50.653524" lon="6.430793">
        <ele>328.910000</ele>
        <time>2009-10-18T08:59:41Z</time>
      </trkpt>
      <trkpt lat="50.653405" lon="6.431056">
        <ele>329.870000</ele>
        <time>2009-10-18T08:59:56Z</time>
      </trkpt>
      <trkpt lat="50.653334" lon="6.431155">
        <ele>330.350000</ele>
        <time>2009-10-18T09:00:04Z</time>
      </trkpt>
      <trkpt lat="50.653259" lon="6.431372">
        <ele>330.830000</ele>
        <time>2009-10-18T09:00:18Z</time>
      </trkpt>
      <trkpt lat="50.653209" lon="6.431374">
        <ele>331.310000</ele>
        <time>2009-10-18T09:00:22Z</time>
      </trkpt>
      <trkpt lat="50.652891" lon="6.431393">
        <ele>333.710000</ele>
        <time>2009-10-18T09:00:44Z</time>
      </trkpt>
      <trkpt lat="50.652794" lon="6.431445">
        <ele>335.640000</ele>
        <time>2009-10-18T09:00:59Z</time>
      </trkpt>
      <trkpt lat="50.652520" lon="6.431494">
        <ele>337.080000</ele>
        <time>2009-10-18T09:01:18Z</time>
      </trkpt>
      <trkpt lat="50.652424" lon="6.431515">
        <ele>337.560000</ele>
        <time>2009-10-18T09:01:25Z</time>
      </trkpt>
      <trkpt lat="50.652224" lon="6.431585">
        <ele>338.520000</ele>
        <time>2009-10-18T09:01:40Z</time>
      </trkpt>
      <trkpt lat="50.652191" lon="6.431747">
        <ele>339.480000</ele>
        <time>2009-10-18T09:01:51Z</time>
      </trkpt>
      <trkpt lat="50.652000" lon="6.431906">
        <ele>340.920000</ele>
        <time>2009-10-18T09:02:11Z</time>
      </trkpt>
      <trkpt lat="50.651940" lon="6.431913">
        <ele>341.890000</ele>
        <time>2009-10-18T09:02:18Z</time>
      </trkpt>
      <trkpt lat="50.651700" lon="6.432108">
        <ele>343.330000</ele>
        <time>2009-10-18T09:02:39Z</time>
      </trkpt>
      <trkpt lat="50.651655" lon="6.432121">
        <ele>343.810000</ele>
        <time>2009-10-18T09:02:44Z</time>
      </trkpt>
      <trkpt lat="50.651615" lon="6.432235">
        <ele>344.290000</ele>
        <time>2009-10-18T09:02:49Z</time>
      </trkpt>
      <trkpt lat="50.651482" lon="6.432411">
        <ele>345.250000</ele>
        <time>2009-10-18T09:03:00Z</time>
      </trkpt>
      <trkpt lat="50.651451" lon="6.432483">
        <ele>345.250000</ele>
        <time>2009-10-18T09:03:06Z</time>
      </trkpt>
      <trkpt lat="50.651427" lon="6.432581">
        <ele>345.730000</ele>
        <time>2009-10-18T09:03:11Z</time>
      </trkpt>
      <trkpt lat="50.651365" lon="6.432654">
        <ele>346.690000</ele>
        <time>2009-10-18T09:03:18Z</time>
      </trkpt>
      <trkpt lat="50.651353" lon="6.432775">
        <ele>347.170000</ele>
        <time>2009-10-18T09:03:24Z</time>
      </trkpt>
      <trkpt lat="50.651306" lon="6.433033">
        <ele>347.650000</ele>
        <time>2009-10-18T09:03:36Z</time>
      </trkpt>
      <trkpt lat="50.651295" lon="6.433106">
        <ele>348.130000</ele>
        <time>2009-10-18T09:03:40Z</time>
      </trkpt>
      <trkpt lat="50.651275" lon="6.433367">
        <ele>350.060000</ele>
        <time>2009-10-18T09:03:55Z</time>
      </trkpt>
      <trkpt lat="50.651244" lon="6.433565">
        <ele>351.020000</ele>
        <time>2009-10-18T09:04:06Z</time>
      </trkpt>
      <trkpt lat="50.651230" lon="6.433988">
        <ele>351.980000</ele>
        <time>2009-10-18T09:04:27Z</time>
      </trkpt>
      <trkpt lat="50.651200" lon="6.434339">
        <ele>353.420000</ele>
        <time>2009-10-18T09:04:45Z</time>
      </trkpt>
      <trkpt lat="50.651187" lon="6.434650">
        <ele>354.860000</ele>
        <time>2009-10-18T09:05:03Z</time>
      </trkpt>
      <trkpt lat="50.651144" lon="6.434949">
        <ele>355.830000</ele>
        <time>2009-10-18T09:05:23Z</time>
      </trkpt>
      <trkpt lat="50.651018" lon="6.435258">
        <ele>356.310000</ele>
        <time>2009-10-18T09:05:42Z</time>
      </trkpt>
      <trkpt lat="50.650960" lon="6.435337">
        <ele>356.790000</ele>
        <time>2009-10-18T09:05:50Z</time>
      </trkpt>
      <trkpt lat="50.650691" lon="6.435436">
        <ele>357.270000</ele>
        <time>2009-10-18T09:06:07Z</time>
      </trkpt>
      <trkpt lat="50.650659" lon="6.435588">
        <ele>357.750000</ele>
        <time>2009-10-18T09:06:13Z</time>
      </trkpt>
      <trkpt lat="50.650593" lon="6.435761">
        <ele>358.710000</ele>
        <time>2009-10-18T09:06:24Z</time>
      </trkpt>
      <trkpt lat="50.650567" lon="6.435848">
        <ele>358.710000</ele>
        <time>2009-10-18T09:06:30Z</time>
      </trkpt>
      <trkpt lat="50.650422" lon="6.436145">
        <ele>359.670000</ele>
        <time>2009-10-18T09:06:43Z</time>
      </trkpt>
      <trkpt lat="50.650410" lon="6.436184">
        <ele>359.670000</ele>
        <time>2009-10-18T09:06:46Z</time>
      </trkpt>
      <trkpt lat="50.650401" lon="6.436298">
        <ele>360.150000</ele>
        <time>2009-10-18T09:06:52Z</time>
      </trkpt>
      <trkpt lat="50.650398" lon="6.436444">
        <ele>360.150000</ele>
        <time>2009-10-18T09:06:58Z</time>
      </trkpt>
      <trkpt lat="50.650348" lon="6.436621">
        <ele>360.150000</ele>
        <time>2009-10-18T09:07:08Z</time>
      </trkpt>
      <trkpt lat="50.650364" lon="6.436709">
        <ele>360.150000</ele>
        <time>2009-10-18T09:07:12Z</time>
      </trkpt>
      <trkpt lat="50.650351" lon="6.436774">
        <ele>360.150000</ele>
        <time>2009-10-18T09:07:18Z</time>
      </trkpt>
      <trkpt lat="50.650428" lon="6.436978">
        <ele>359.670000</ele>
        <time>2009-10-18T09:07:29Z</time>
      </trkpt>
      <trkpt lat="50.650499" lon="6.437146">
        <ele>360.150000</ele>
        <time>2009-10-18T09:07:42Z</time>
      </trkpt>
      <trkpt lat="50.650605" lon="6.437402">
        <ele>361.110000</ele>
        <time>2009-10-18T09:07:58Z</time>
      </trkpt>
      <trkpt lat="50.650719" lon="6.437585">
        <ele>361.590000</ele>
        <time>2009-10-18T09:08:11Z</time>
      </trkpt>
      <trkpt lat="50.650869" lon="6.437858">
        <ele>362.550000</ele>
        <time>2009-10-18T09:08:34Z</time>
      </trkpt>
      <trkpt lat="50.650959" lon="6.438125">
        <ele>363.040000</ele>
        <time>2009-10-18T09:08:46Z</time>
      </trkpt>
      <trkpt lat="50.650996" lon="6.438180">
        <ele>363.040000</ele>
        <time>2009-10-18T09:08:50Z</time>
      </trkpt>
      <trkpt lat="50.651036" lon="6.438262">
        <ele>363.040000</ele>
        <time>2009-10-18T09:08:56Z</time>
      </trkpt>
      <trkpt lat="50.651120" lon="6.438362">
        <ele>363.520000</ele>
        <time>2009-10-18T09:09:06Z</time>
      </trkpt>
      <trkpt lat="50.651124" lon="6.438440">
        <ele>363.520000</ele>
        <time>2009-10-18T09:09:09Z</time>
      </trkpt>
      <trkpt lat="50.651218" lon="6.438679">
        <ele>363.520000</ele>
        <time>2009-10-18T09:09:23Z</time>
      </trkpt>
      <trkpt lat="50.651312" lon="6.438959">
        <ele>364.000000</ele>
        <time>2009-10-18T09:09:40Z</time>
      </trkpt>
      <trkpt lat="50.651335" lon="6.439081">
        <ele>364.000000</ele>
        <time>2009-10-18T09:09:47Z</time>
      </trkpt>
      <trkpt lat="50.651402" lon="6.439143">
        <ele>364.000000</ele>
        <time>2009-10-18T09:09:51Z</time>
      </trkpt>
      <trkpt lat="50.651482" lon="6.439330">
        <ele>364.000000</ele>
        <time>2009-10-18T09:10:02Z</time>
      </trkpt>
      <trkpt lat="50.651606" lon="6.439533">
        <ele>363.520000</ele>
        <time>2009-10-18T09:10:16Z</time>
      </trkpt>
      <trkpt lat="50.651740" lon="6.439870">
        <ele>363.040000</ele>
        <time>2009-10-18T09:10:38Z</time>
      </trkpt>
      <trkpt lat="50.651950" lon="6.440216">
        <ele>363.520000</ele>
        <time>2009-10-18T09:11:01Z</time>
      </trkpt>
      <trkpt lat="50.652043" lon="6.440529">
        <ele>363.040000</ele>
        <time>2009-10-18T09:11:20Z</time>
      </trkpt>
      <trkpt lat="50.652057" lon="6.440614">
        <ele>363.040000</ele>
        <time>2009-10-18T09:11:51Z</time>
      </trkpt>
      <trkpt lat="50.652050" lon="6.440749">
        <ele>363.040000</ele>
        <time>2009-10-18T09:11:57Z</time>
      </trkpt>
      <trkpt lat="50.652066" lon="6.441220">
        <ele>362.550000</ele>
        <time>2009-10-18T09:12:20Z</time>
      </trkpt>
      <trkpt lat="50.652103" lon="6.441625">
        <ele>363.520000</ele>
        <time>2009-10-18T09:12:41Z</time>
      </trkpt>
      <trkpt lat="50.652112" lon="6.442047">
        <ele>364.480000</ele>
        <time>2009-10-18T09:13:02Z</time>
      </trkpt>
      <trkpt lat="50.652110" lon="6.442133">
        <ele>364.480000</ele>
        <time>2009-10-18T09:13:05Z</time>
      </trkpt>
      <trkpt lat="50.652108" lon="6.442239">
        <ele>364.480000</ele>
        <time>2009-10-18T09:13:10Z</time>
      </trkpt>
      <trkpt lat="50.652139" lon="6.442318">
        <ele>364.960000</ele>
        <time>2009-10-18T09:13:13Z</time>
      </trkpt>
      <trkpt lat="50.652041" lon="6.442546">
        <ele>365.440000</ele>
        <time>2009-10-18T09:13:25Z</time>
      </trkpt>
      <trkpt lat="50.651944" lon="6.442775">
        <ele>367.360000</ele>
        <time>2009-10-18T09:13:38Z</time>
      </trkpt>
      <trkpt lat="50.651939" lon="6.442977">
        <ele>368.800000</ele>
        <time>2009-10-18T09:13:51Z</time>
      </trkpt>
      <trkpt lat="50.652123" lon="6.443295">
        <ele>370.730000</ele>
        <time>2009-10-18T09:14:11Z</time>
      </trkpt>
      <trkpt lat="50.652111" lon="6.443567">
        <ele>372.650000</ele>
        <time>2009-10-18T09:14:24Z</time>
      </trkpt>
      <trkpt lat="50.652033" lon="6.443933">
        <ele>376.010000</ele>
        <time>2009-10-18T09:14:46Z</time>
      </trkpt>
      <trkpt lat="50.651979" lon="6.444241">
        <ele>378.900000</ele>
        <time>2009-10-18T09:15:06Z</time>
      </trkpt>
      <trkpt lat="50.651989" lon="6.444400">
        <ele>379.380000</ele>
        <time>2009-10-18T09:15:14Z</time>
      </trkpt>
      <trkpt lat="50.652189" lon="6.444607">
        <ele>381.300000</ele>
        <time>2009-10-18T09:15:40Z</time>
      </trkpt>
      <trkpt lat="50.652237" lon="6.444586">
        <ele>380.820000</ele>
        <time>2009-10-18T09:15:46Z</time>
      </trkpt>
      <trkpt lat="50.652291" lon="6.444705">
        <ele>380.820000</ele>
        <time>2009-10-18T09:15:58Z</time>
      </trkpt>
      <trkpt lat="50.652189" lon="6.444880">
        <ele>380.820000</ele>
        <time>2009-10-18T09:16:14Z</time>
      </trkpt>
      <trkpt lat="50.652215" lon="6.444955">
        <ele>380.820000</ele>
        <time>2009-10-18T09:16:18Z</time>
      </trkpt>
      <trkpt lat="50.652339" lon="6.445277">
        <ele>380.340000</ele>
        <time>2009-10-18T09:16:36Z</time>
      </trkpt>
      <trkpt lat="50.652464" lon="6.445470">
        <ele>379.860000</ele>
        <time>2009-10-18T09:16:50Z</time>
      </trkpt>
      <trkpt lat="50.652470" lon="6.445499">
        <ele>379.860000</ele>
        <time>2009-10-18T09:16:52Z</time>
      </trkpt>
      <trkpt lat="50.652543" lon="6.445787">
        <ele>379.380000</ele>
        <time>2009-10-18T09:17:06Z</time>
      </trkpt>
      <trkpt lat="50.652627" lon="6.445976">
        <ele>378.900000</ele>
        <time>2009-10-18T09:17:18Z</time>
      </trkpt>
      <trkpt lat="50.652682" lon="6.446045">
        <ele>379.380000</ele>
        <time>2009-10-18T09:17:23Z</time>
      </trkpt>
      <trkpt lat="50.652705" lon="6.446073">
        <ele>379.380000</ele>
        <time>2009-10-18T09:17:25Z</time>
      </trkpt>
      <trkpt lat="50.652845" lon="6.446206">
        <ele>378.900000</ele>
        <time>2009-10-18T09:17:39Z</time>
      </trkpt>
      <trkpt lat="50.652985" lon="6.446305">
        <ele>378.420000</ele>
        <time>2009-10-18T09:17:55Z</time>
      </trkpt>
      <trkpt lat="50.653118" lon="6.446508">
        <ele>378.420000</ele>
        <time>2009-10-18T09:18:08Z</time>
      </trkpt>
      <trkpt lat="50.653213" lon="6.446588">
        <ele>377.940000</ele>
        <time>2009-10-18T09:18:16Z</time>
      </trkpt>
      <trkpt lat="50.653243" lon="6.446639">
        <ele>377.940000</ele>
        <time>2009-10-18T09:18:20Z</time>
      </trkpt>
      <trkpt lat="50.653307" lon="6.446659">
        <ele>378.420000</ele>
        <time>2009-10-18T09:18:26Z</time>
      </trkpt>
      <trkpt lat="50.653445" lon="6.446841">
        <ele>378.420000</ele>
        <time>2009-10-18T09:18:39Z</time>
      </trkpt>
      <trkpt lat="50.653621" lon="6.447016">
        <ele>378.420000</ele>
        <time>2009-10-18T09:18:55Z</time>
      </trkpt>
      <trkpt lat="50.653796" lon="6.447153">
        <ele>378.900000</ele>
        <time>2009-10-18T09:19:08Z</time>
      </trkpt>
      <trkpt lat="50.653957" lon="6.447211">
        <ele>379.860000</ele>
        <time>2009-10-18T09:19:21Z</time>
      </trkpt>
      <trkpt lat="50.654080" lon="6.447098">
        <ele>380.340000</ele>
        <time>2009-10-18T09:19:32Z</time>
      </trkpt>
      <trkpt lat="50.654111" lon="6.447027">
        <ele>380.820000</ele>
        <time>2009-10-18T09:19:38Z</time>
      </trkpt>
      <trkpt lat="50.654276" lon="6.446897">
        <ele>380.340000</ele>
        <time>2009-10-18T09:19:52Z</time>
      </trkpt>
      <trkpt lat="50.654326" lon="6.446848">
        <ele>380.820000</ele>
        <time>2009-10-18T09:19:57Z</time>
      </trkpt>
      <trkpt lat="50.654379" lon="6.446816">
        <ele>381.300000</ele>
        <time>2009-10-18T09:20:01Z</time>
      </trkpt>
      <trkpt lat="50.654437" lon="6.446839">
        <ele>381.300000</ele>
        <time>2009-10-18T09:20:04Z</time>
      </trkpt>
      <trkpt lat="50.654599" lon="6.446674">
        <ele>382.260000</ele>
        <time>2009-10-18T09:20:18Z</time>
      </trkpt>
      <trkpt lat="50.654746" lon="6.446579">
        <ele>382.740000</ele>
        <time>2009-10-18T09:20:29Z</time>
      </trkpt>
      <trkpt lat="50.654786" lon="6.446540">
        <ele>382.740000</ele>
        <time>2009-10-18T09:20:33Z</time>
      </trkpt>
      <trkpt lat="50.654883" lon="6.446452">
        <ele>382.740000</ele>
        <time>2009-10-18T09:20:43Z</time>
      </trkpt>
      <trkpt lat="50.654978" lon="6.446332">
        <ele>383.220000</ele>
        <time>2009-10-18T09:20:52Z</time>
      </trkpt>
      <trkpt lat="50.655023" lon="6.446277">
        <ele>383.220000</ele>
        <time>2009-10-18T09:20:56Z</time>
      </trkpt>
      <trkpt lat="50.655191" lon="6.446124">
        <ele>383.220000</ele>
        <time>2009-10-18T09:21:10Z</time>
      </trkpt>
      <trkpt lat="50.655299" lon="6.445996">
        <ele>383.700000</ele>
        <time>2009-10-18T09:21:22Z</time>
      </trkpt>
      <trkpt lat="50.655343" lon="6.445723">
        <ele>384.660000</ele>
        <time>2009-10-18T09:21:36Z</time>
      </trkpt>
      <trkpt lat="50.655347" lon="6.445675">
        <ele>384.660000</ele>
        <time>2009-10-18T09:21:40Z</time>
      </trkpt>
      <trkpt lat="50.655349" lon="6.445638">
        <ele>384.660000</ele>
        <time>2009-10-18T09:21:42Z</time>
      </trkpt>
      <trkpt lat="50.655352" lon="6.445588">
        <ele>385.150000</ele>
        <time>2009-10-18T09:21:45Z</time>
      </trkpt>
      <trkpt lat="50.655425" lon="6.445312">
        <ele>385.630000</ele>
        <time>2009-10-18T09:22:02Z</time>
      </trkpt>
      <trkpt lat="50.655417" lon="6.445075">
        <ele>386.110000</ele>
        <time>2009-10-18T09:22:15Z</time>
      </trkpt>
      <trkpt lat="50.655386" lon="6.444923">
        <ele>386.110000</ele>
        <time>2009-10-18T09:22:23Z</time>
      </trkpt>
      <trkpt lat="50.655381" lon="6.444843">
        <ele>386.590000</ele>
        <time>2009-10-18T09:22:27Z</time>
      </trkpt>
      <trkpt lat="50.655313" lon="6.444603">
        <ele>387.550000</ele>
        <time>2009-10-18T09:22:40Z</time>
      </trkpt>
      <trkpt lat="50.655249" lon="6.444373">
        <ele>388.030000</ele>
        <time>2009-10-18T09:22:55Z</time>
      </trkpt>
      <trkpt lat="50.655245" lon="6.444336">
        <ele>388.510000</ele>
        <time>2009-10-18T09:22:57Z</time>
      </trkpt>
      <trkpt lat="50.655184" lon="6.444030">
        <ele>389.470000</ele>
        <time>2009-10-18T09:23:13Z</time>
      </trkpt>
      <trkpt lat="50.655105" lon="6.443712">
        <ele>389.950000</ele>
        <time>2009-10-18T09:23:28Z</time>
      </trkpt>
      <trkpt lat="50.655073" lon="6.443614">
        <ele>389.950000</ele>
        <time>2009-10-18T09:23:34Z</time>
      </trkpt>
      <trkpt lat="50.655053" lon="6.443524">
        <ele>390.430000</ele>
        <time>2009-10-18T09:23:39Z</time>
      </trkpt>
      <trkpt lat="50.655004" lon="6.443214">
        <ele>390.910000</ele>
        <time>2009-10-18T09:23:54Z</time>
      </trkpt>
      <trkpt lat="50.654996" lon="6.443100">
        <ele>390.910000</ele>
        <time>2009-10-18T09:24:00Z</time>
      </trkpt>
      <trkpt lat="50.654942" lon="6.442876">
        <ele>390.910000</ele>
        <time>2009-10-18T09:24:13Z</time>
      </trkpt>
      <trkpt lat="50.654942" lon="6.442807">
        <ele>391.390000</ele>
        <time>2009-10-18T09:24:17Z</time>
      </trkpt>
      <trkpt lat="50.654922" lon="6.442686">
        <ele>390.910000</ele>
        <time>2009-10-18T09:24:23Z</time>
      </trkpt>
      <trkpt lat="50.654893" lon="6.442520">
        <ele>391.390000</ele>
        <time>2009-10-18T09:24:34Z</time>
      </trkpt>
      <trkpt lat="50.654898" lon="6.442389">
        <ele>391.390000</ele>
        <time>2009-10-18T09:24:41Z</time>
      </trkpt>
      <trkpt lat="50.655071" lon="6.442275">
        <ele>390.430000</ele>
        <time>2009-10-18T09:24:55Z</time>
      </trkpt>
      <trkpt lat="50.655080" lon="6.442261">
        <ele>390.430000</ele>
        <time>2009-10-18T09:24:56Z</time>
      </trkpt>
      <trkpt lat="50.655275" lon="6.442052">
        <ele>389.470000</ele>
        <time>2009-10-18T09:25:13Z</time>
      </trkpt>
      <trkpt lat="50.655476" lon="6.441880">
        <ele>388.030000</ele>
        <time>2009-10-18T09:25:29Z</time>
      </trkpt>
      <trkpt lat="50.655638" lon="6.441711">
        <ele>387.550000</ele>
        <time>2009-10-18T09:25:42Z</time>
      </trkpt>
      <trkpt lat="50.655770" lon="6.441557">
        <ele>387.070000</ele>
        <time>2009-10-18T09:25:56Z</time>
      </trkpt>
      <trkpt lat="50.655868" lon="6.441431">
        <ele>386.590000</ele>
        <time>2009-10-18T09:26:07Z</time>
      </trkpt>
      <trkpt lat="50.655903" lon="6.441329">
        <ele>385.150000</ele>
        <time>2009-10-18T09:26:15Z</time>
      </trkpt>
      <trkpt lat="50.655915" lon="6.441170">
        <ele>385.630000</ele>
        <time>2009-10-18T09:26:22Z</time>
      </trkpt>
      <trkpt lat="50.655906" lon="6.440816">
        <ele>386.110000</ele>
        <time>2009-10-18T09:26:37Z</time>
      </trkpt>
      <trkpt lat="50.655904" lon="6.440749">
        <ele>386.110000</ele>
        <time>2009-10-18T09:26:40Z</time>
      </trkpt>
      <trkpt lat="50.655928" lon="6.440501">
        <ele>386.110000</ele>
        <time>2009-10-18T09:26:53Z</time>
      </trkpt>
      <trkpt lat="50.655937" lon="6.440165">
        <ele>387.550000</ele>
        <time>2009-10-18T09:27:10Z</time>
      </trkpt>
      <trkpt lat="50.655944" lon="6.440143">
        <ele>387.070000</ele>
        <time>2009-10-18T09:27:11Z</time>
      </trkpt>
      <trkpt lat="50.655950" lon="6.439861">
        <ele>387.550000</ele>
        <time>2009-10-18T09:27:22Z</time>
      </trkpt>
      <trkpt lat="50.655957" lon="6.439519">
        <ele>388.510000</ele>
        <time>2009-10-18T09:27:37Z</time>
      </trkpt>
      <trkpt lat="50.655959" lon="6.439246">
        <ele>388.990000</ele>
        <time>2009-10-18T09:27:51Z</time>
      </trkpt>
      <trkpt lat="50.655956" lon="6.439235">
        <ele>388.990000</ele>
        <time>2009-10-18T09:27:52Z</time>
      </trkpt>
      <trkpt lat="50.655959" lon="6.439199">
        <ele>388.990000</ele>
        <time>2009-10-18T09:27:54Z</time>
      </trkpt>
      <trkpt lat="50.655974" lon="6.439001">
        <ele>389.470000</ele>
        <time>2009-10-18T09:28:04Z</time>
      </trkpt>
      <trkpt lat="50.655977" lon="6.438661">
        <ele>389.950000</ele>
        <time>2009-10-18T09:28:20Z</time>
      </trkpt>
      <trkpt lat="50.655992" lon="6.438347">
        <ele>389.950000</ele>
        <time>2009-10-18T09:28:36Z</time>
      </trkpt>
      <trkpt lat="50.655995" lon="6.438033">
        <ele>389.950000</ele>
        <time>2009-10-18T09:28:50Z</time>
      </trkpt>
      <trkpt lat="50.655963" lon="6.437803">
        <ele>389.950000</ele>
        <time>2009-10-18T09:29:02Z</time>
      </trkpt>
      <trkpt lat="50.655971" lon="6.437751">
        <ele>389.950000</ele>
        <time>2009-10-18T09:29:04Z</time>
      </trkpt>
      <trkpt lat="50.656009" lon="6.437457">
        <ele>389.950000</ele>
        <time>2009-10-18T09:29:18Z</time>
      </trkpt>
      <trkpt lat="50.655996" lon="6.437373">
        <ele>389.950000</ele>
        <time>2009-10-18T09:29:22Z</time>
      </trkpt>
      <trkpt lat="50.656000" lon="6.437167">
        <ele>390.430000</ele>
        <time>2009-10-18T09:29:32Z</time>
      </trkpt>
      <trkpt lat="50.655995" lon="6.436988">
        <ele>390.430000</ele>
        <time>2009-10-18T09:29:41Z</time>
      </trkpt>
      <trkpt lat="50.655995" lon="6.436611">
        <ele>391.390000</ele>
        <time>2009-10-18T09:29:58Z</time>
      </trkpt>
      <trkpt lat="50.655985" lon="6.436184">
        <ele>392.360000</ele>
        <time>2009-10-18T09:30:17Z</time>
      </trkpt>
      <trkpt lat="50.655977" lon="6.435931">
        <ele>392.840000</ele>
        <time>2009-10-18T09:30:30Z</time>
      </trkpt>
      <trkpt lat="50.655979" lon="6.435744">
        <ele>393.800000</ele>
        <time>2009-10-18T09:30:39Z</time>
      </trkpt>
      <trkpt lat="50.655980" lon="6.435645">
        <ele>393.800000</ele>
        <time>2009-10-18T09:30:44Z</time>
      </trkpt>
      <trkpt lat="50.655986" lon="6.435423">
        <ele>394.280000</ele>
        <time>2009-10-18T09:30:54Z</time>
      </trkpt>
      <trkpt lat="50.655985" lon="6.435325">
        <ele>394.280000</ele>
        <time>2009-10-18T09:30:59Z</time>
      </trkpt>
      <trkpt lat="50.656014" lon="6.435047">
        <ele>394.760000</ele>
        <time>2009-10-18T09:31:13Z</time>
      </trkpt>
      <trkpt lat="50.656022" lon="6.435006">
        <ele>394.760000</ele>
        <time>2009-10-18T09:31:16Z</time>
      </trkpt>
      <trkpt lat="50.655981" lon="6.434696">
        <ele>395.240000</ele>
        <time>2009-10-18T09:31:32Z</time>
      </trkpt>
      <trkpt lat="50.656016" lon="6.434477">
        <ele>395.240000</ele>
        <time>2009-10-18T09:31:42Z</time>
      </trkpt>
      <trkpt lat="50.656091" lon="6.434161">
        <ele>396.200000</ele>
        <time>2009-10-18T09:31:57Z</time>
      </trkpt>
      <trkpt lat="50.656218" lon="6.433849">
        <ele>397.160000</ele>
        <time>2009-10-18T09:32:11Z</time>
      </trkpt>
      <trkpt lat="50.656352" lon="6.433622">
        <ele>397.160000</ele>
        <time>2009-10-18T09:32:26Z</time>
      </trkpt>
      <trkpt lat="50.656387" lon="6.433555">
        <ele>396.680000</ele>
        <time>2009-10-18T09:32:31Z</time>
      </trkpt>
      <trkpt lat="50.656433" lon="6.433462">
        <ele>397.160000</ele>
        <time>2009-10-18T09:32:37Z</time>
      </trkpt>
      <trkpt lat="50.656552" lon="6.433225">
        <ele>397.160000</ele>
        <time>2009-10-18T09:32:51Z</time>
      </trkpt>
      <trkpt lat="50.656651" lon="6.433023">
        <ele>397.640000</ele>
        <time>2009-10-18T09:33:03Z</time>
      </trkpt>
      <trkpt lat="50.656706" lon="6.432910">
        <ele>397.640000</ele>
        <time>2009-10-18T09:33:10Z</time>
      </trkpt>
      <trkpt lat="50.656844" lon="6.432664">
        <ele>398.600000</ele>
        <time>2009-10-18T09:33:26Z</time>
      </trkpt>
      <trkpt lat="50.656995" lon="6.432436">
        <ele>399.570000</ele>
        <time>2009-10-18T09:33:41Z</time>
      </trkpt>
      <trkpt lat="50.657126" lon="6.432225">
        <ele>400.530000</ele>
        <time>2009-10-18T09:33:54Z</time>
      </trkpt>
      <trkpt lat="50.657185" lon="6.432128">
        <ele>401.010000</ele>
        <time>2009-10-18T09:34:01Z</time>
      </trkpt>
      <trkpt lat="50.657237" lon="6.431810">
        <ele>402.450000</ele>
        <time>2009-10-18T09:34:18Z</time>
      </trkpt>
      <trkpt lat="50.657226" lon="6.431547">
        <ele>403.410000</ele>
        <time>2009-10-18T09:34:33Z</time>
      </trkpt>
      <trkpt lat="50.657229" lon="6.431267">
        <ele>403.890000</ele>
        <time>2009-10-18T09:34:47Z</time>
      </trkpt>
      <trkpt lat="50.657242" lon="6.431035">
        <ele>404.850000</ele>
        <time>2009-10-18T09:34:59Z</time>
      </trkpt>
      <trkpt lat="50.657266" lon="6.430720">
        <ele>404.370000</ele>
        <time>2009-10-18T09:35:14Z</time>
      </trkpt>
      <trkpt lat="50.657253" lon="6.430469">
        <ele>404.370000</ele>
        <time>2009-10-18T09:35:25Z</time>
      </trkpt>
      <trkpt lat="50.657254" lon="6.430196">
        <ele>405.330000</ele>
        <time>2009-10-18T09:35:36Z</time>
      </trkpt>
      <trkpt lat="50.657259" lon="6.430141">
        <ele>404.850000</ele>
        <time>2009-10-18T09:35:39Z</time>
      </trkpt>
      <trkpt lat="50.657248" lon="6.429811">
        <ele>405.330000</ele>
        <time>2009-10-18T09:35:53Z</time>
      </trkpt>
      <trkpt lat="50.657263" lon="6.429505">
        <ele>406.290000</ele>
        <time>2009-10-18T09:36:08Z</time>
      </trkpt>
      <trkpt lat="50.657261" lon="6.429308">
        <ele>406.290000</ele>
        <time>2009-10-18T09:36:19Z</time>
      </trkpt>
      <trkpt lat="50.657266" lon="6.429177">
        <ele>406.290000</ele>
        <time>2009-10-18T09:36:26Z</time>
      </trkpt>
      <trkpt lat="50.657271" lon="6.428822">
        <ele>406.290000</ele>
        <time>2009-10-18T09:36:43Z</time>
      </trkpt>
      <trkpt lat="50.657256" lon="6.428517">
        <ele>405.330000</ele>
        <time>2009-10-18T09:36:58Z</time>
      </trkpt>
      <trkpt lat="50.657193" lon="6.428219">
        <ele>404.850000</ele>
        <time>2009-10-18T09:37:12Z</time>
      </trkpt>
      <trkpt lat="50.657173" lon="6.428124">
        <ele>404.370000</ele>
        <time>2009-10-18T09:37:18Z</time>
      </trkpt>
      <trkpt lat="50.657066" lon="6.427845">
        <ele>404.850000</ele>
        <time>2009-10-18T09:37:35Z</time>
      </trkpt>
      <trkpt lat="50.656975" lon="6.427487">
        <ele>405.810000</ele>
        <time>2009-10-18T09:37:51Z</time>
      </trkpt>
      <trkpt lat="50.656899" lon="6.427244">
        <ele>406.290000</ele>
        <time>2009-10-18T09:38:03Z</time>
      </trkpt>
      <trkpt lat="50.656866" lon="6.427149">
        <ele>406.290000</ele>
        <time>2009-10-18T09:38:08Z</time>
      </trkpt>
      <trkpt lat="50.656800" lon="6.426955">
        <ele>406.770000</ele>
        <time>2009-10-18T09:38:18Z</time>
      </trkpt>
      <trkpt lat="50.656719" lon="6.426682">
        <ele>406.770000</ele>
        <time>2009-10-18T09:38:34Z</time>
      </trkpt>
      <trkpt lat="50.656623" lon="6.426392">
        <ele>406.770000</ele>
        <time>2009-10-18T09:38:48Z</time>
      </trkpt>
      <trkpt lat="50.656530" lon="6.426103">
        <ele>406.770000</ele>
        <time>2009-10-18T09:39:03Z</time>
      </trkpt>
      <trkpt lat="50.656493" lon="6.425767">
        <ele>407.260000</ele>
        <time>2009-10-18T09:39:18Z</time>
      </trkpt>
      <trkpt lat="50.656450" lon="6.425539">
        <ele>407.260000</ele>
        <time>2009-10-18T09:39:31Z</time>
      </trkpt>
      <trkpt lat="50.656418" lon="6.425284">
        <ele>406.770000</ele>
        <time>2009-10-18T09:39:45Z</time>
      </trkpt>
      <trkpt lat="50.656404" lon="6.425165">
        <ele>406.770000</ele>
        <time>2009-10-18T09:39:50Z</time>
      </trkpt>
      <trkpt lat="50.656399" lon="6.425012">
        <ele>407.260000</ele>
        <time>2009-10-18T09:39:56Z</time>
      </trkpt>
      <trkpt lat="50.656423" lon="6.424677">
        <ele>406.290000</ele>
        <time>2009-10-18T09:40:10Z</time>
      </trkpt>
      <trkpt lat="50.656424" lon="6.424625">
        <ele>406.290000</ele>
        <time>2009-10-18T09:40:13Z</time>
      </trkpt>
      <trkpt lat="50.656435" lon="6.424492">
        <ele>405.810000</ele>
        <time>2009-10-18T09:40:21Z</time>
      </trkpt>
      <trkpt lat="50.656507" lon="6.424176">
        <ele>405.330000</ele>
        <time>2009-10-18T09:40:38Z</time>
      </trkpt>
      <trkpt lat="50.656517" lon="6.424145">
        <ele>405.330000</ele>
        <time>2009-10-18T09:40:40Z</time>
      </trkpt>
      <trkpt lat="50.656585" lon="6.423832">
        <ele>406.290000</ele>
        <time>2009-10-18T09:40:54Z</time>
      </trkpt>
      <trkpt lat="50.656606" lon="6.423771">
        <ele>406.290000</ele>
        <time>2009-10-18T09:40:58Z</time>
      </trkpt>
      <trkpt lat="50.656626" lon="6.423601">
        <ele>406.770000</ele>
        <time>2009-10-18T09:41:07Z</time>
      </trkpt>
      <trkpt lat="50.656661" lon="6.423305">
        <ele>408.220000</ele>
        <time>2009-10-18T09:41:22Z</time>
      </trkpt>
      <trkpt lat="50.656723" lon="6.423015">
        <ele>409.660000</ele>
        <time>2009-10-18T09:41:37Z</time>
      </trkpt>
      <trkpt lat="50.656778" lon="6.422672">
        <ele>411.100000</ele>
        <time>2009-10-18T09:41:54Z</time>
      </trkpt>
      <trkpt lat="50.656824" lon="6.422342">
        <ele>412.540000</ele>
        <time>2009-10-18T09:42:10Z</time>
      </trkpt>
      <trkpt lat="50.656857" lon="6.422073">
        <ele>413.980000</ele>
        <time>2009-10-18T09:42:25Z</time>
      </trkpt>
      <trkpt lat="50.656906" lon="6.421736">
        <ele>414.950000</ele>
        <time>2009-10-18T09:42:41Z</time>
      </trkpt>
      <trkpt lat="50.656913" lon="6.421669">
        <ele>414.950000</ele>
        <time>2009-10-18T09:42:45Z</time>
      </trkpt>
      <trkpt lat="50.656913" lon="6.421628">
        <ele>415.430000</ele>
        <time>2009-10-18T09:42:48Z</time>
      </trkpt>
      <trkpt lat="50.656997" lon="6.421600">
        <ele>415.430000</ele>
        <time>2009-10-18T09:43:01Z</time>
      </trkpt>
      <trkpt lat="50.656955" lon="6.421569">
        <ele>415.430000</ele>
        <time>2009-10-18T09:43:10Z</time>
      </trkpt>
      <trkpt lat="50.656981" lon="6.421501">
        <ele>415.430000</ele>
        <time>2009-10-18T09:43:29Z</time>
      </trkpt>
      <trkpt lat="50.656977" lon="6.421405">
        <ele>415.910000</ele>
        <time>2009-10-18T09:43:52Z</time>
      </trkpt>
      <trkpt lat="50.657008" lon="6.421378">
        <ele>415.430000</ele>
        <time>2009-10-18T09:44:11Z</time>
      </trkpt>
      <trkpt lat="50.656957" lon="6.421315">
        <ele>415.910000</ele>
        <time>2009-10-18T09:44:39Z</time>
      </trkpt>
      <trkpt lat="50.656965" lon="6.421261">
        <ele>416.390000</ele>
        <time>2009-10-18T09:44:59Z</time>
      </trkpt>
      <trkpt lat="50.656981" lon="6.421160">
        <ele>416.390000</ele>
        <time>2009-10-18T09:45:21Z</time>
      </trkpt>
      <trkpt lat="50.657024" lon="6.420934">
        <ele>417.350000</ele>
        <time>2009-10-18T09:45:33Z</time>
      </trkpt>
      <trkpt lat="50.657044" lon="6.420748">
        <ele>417.830000</ele>
        <time>2009-10-18T09:45:41Z</time>
      </trkpt>
      <trkpt lat="50.657093" lon="6.420461">
        <ele>418.790000</ele>
        <time>2009-10-18T09:45:57Z</time>
      </trkpt>
      <trkpt lat="50.657105" lon="6.420357">
        <ele>418.790000</ele>
        <time>2009-10-18T09:46:02Z</time>
      </trkpt>
      <trkpt lat="50.657133" lon="6.420103">
        <ele>419.750000</ele>
        <time>2009-10-18T09:46:15Z</time>
      </trkpt>
      <trkpt lat="50.657135" lon="6.419884">
        <ele>419.750000</ele>
        <time>2009-10-18T09:46:27Z</time>
      </trkpt>
      <trkpt lat="50.657202" lon="6.419628">
        <ele>419.750000</ele>
        <time>2009-10-18T09:46:41Z</time>
      </trkpt>
      <trkpt lat="50.657244" lon="6.419318">
        <ele>419.750000</ele>
        <time>2009-10-18T09:46:56Z</time>
      </trkpt>
      <trkpt lat="50.657245" lon="6.419088">
        <ele>420.230000</ele>
        <time>2009-10-18T09:47:08Z</time>
      </trkpt>
      <trkpt lat="50.657292" lon="6.418814">
        <ele>420.230000</ele>
        <time>2009-10-18T09:47:21Z</time>
      </trkpt>
      <trkpt lat="50.657353" lon="6.418561">
        <ele>420.230000</ele>
        <time>2009-10-18T09:47:33Z</time>
      </trkpt>
      <trkpt lat="50.657383" lon="6.418466">
        <ele>420.230000</ele>
        <time>2009-10-18T09:47:39Z</time>
      </trkpt>
      <trkpt lat="50.657382" lon="6.418218">
        <ele>419.270000</ele>
        <time>2009-10-18T09:47:52Z</time>
      </trkpt>
      <trkpt lat="50.657418" lon="6.417894">
        <ele>419.270000</ele>
        <time>2009-10-18T09:48:07Z</time>
      </trkpt>
      <trkpt lat="50.657486" lon="6.417690">
        <ele>419.270000</ele>
        <time>2009-10-18T09:48:21Z</time>
      </trkpt>
      <trkpt lat="50.657514" lon="6.417649">
        <ele>418.790000</ele>
        <time>2009-10-18T09:48:25Z</time>
      </trkpt>
      <trkpt lat="50.657607" lon="6.417411">
        <ele>418.790000</ele>
        <time>2009-10-18T09:48:40Z</time>
      </trkpt>
      <trkpt lat="50.657628" lon="6.417383">
        <ele>418.790000</ele>
        <time>2009-10-18T09:48:42Z</time>
      </trkpt>
      <trkpt lat="50.657677" lon="6.417303">
        <ele>418.790000</ele>
        <time>2009-10-18T09:48:47Z</time>
      </trkpt>
      <trkpt lat="50.657691" lon="6.417232">
        <ele>418.310000</ele>
        <time>2009-10-18T09:48:51Z</time>
      </trkpt>
      <trkpt lat="50.657824" lon="6.416957">
        <ele>417.350000</ele>
        <time>2009-10-18T09:49:07Z</time>
      </trkpt>
      <trkpt lat="50.657898" lon="6.416683">
        <ele>417.350000</ele>
        <time>2009-10-18T09:49:21Z</time>
      </trkpt>
      <trkpt lat="50.657974" lon="6.416527">
        <ele>417.350000</ele>
        <time>2009-10-18T09:49:31Z</time>
      </trkpt>
      <trkpt lat="50.657909" lon="6.416334">
        <ele>417.830000</ele>
        <time>2009-10-18T09:49:41Z</time>
      </trkpt>
      <trkpt lat="50.657721" lon="6.416151">
        <ele>419.270000</ele>
        <time>2009-10-18T09:49:57Z</time>
      </trkpt>
      <trkpt lat="50.657560" lon="6.416015">
        <ele>420.230000</ele>
        <time>2009-10-18T09:50:10Z</time>
      </trkpt>
      <trkpt lat="50.657434" lon="6.415902">
        <ele>420.710000</ele>
        <time>2009-10-18T09:50:21Z</time>
      </trkpt>
      <trkpt lat="50.657324" lon="6.415834">
        <ele>421.680000</ele>
        <time>2009-10-18T09:50:30Z</time>
      </trkpt>
      <trkpt lat="50.657263" lon="6.415720">
        <ele>422.640000</ele>
        <time>2009-10-18T09:50:38Z</time>
      </trkpt>
      <trkpt lat="50.657317" lon="6.415516">
        <ele>423.120000</ele>
        <time>2009-10-18T09:50:52Z</time>
      </trkpt>
      <trkpt lat="50.657326" lon="6.415474">
        <ele>422.640000</ele>
        <time>2009-10-18T09:50:54Z</time>
      </trkpt>
      <trkpt lat="50.657436" lon="6.415198">
        <ele>423.120000</ele>
        <time>2009-10-18T09:51:09Z</time>
      </trkpt>
      <trkpt lat="50.657530" lon="6.414973">
        <ele>423.600000</ele>
        <time>2009-10-18T09:51:24Z</time>
      </trkpt>
      <trkpt lat="50.657610" lon="6.414697">
        <ele>424.080000</ele>
        <time>2009-10-18T09:51:40Z</time>
      </trkpt>
      <trkpt lat="50.657683" lon="6.414471">
        <ele>425.040000</ele>
        <time>2009-10-18T09:51:52Z</time>
      </trkpt>
      <trkpt lat="50.657793" lon="6.414226">
        <ele>426.000000</ele>
        <time>2009-10-18T09:52:07Z</time>
      </trkpt>
      <trkpt lat="50.657875" lon="6.413959">
        <ele>426.960000</ele>
        <time>2009-10-18T09:52:22Z</time>
      </trkpt>
      <trkpt lat="50.657920" lon="6.413753">
        <ele>427.920000</ele>
        <time>2009-10-18T09:52:34Z</time>
      </trkpt>
      <trkpt lat="50.657981" lon="6.413480">
        <ele>429.370000</ele>
        <time>2009-10-18T09:52:50Z</time>
      </trkpt>
      <trkpt lat="50.658049" lon="6.413112">
        <ele>430.330000</ele>
        <time>2009-10-18T09:53:08Z</time>
      </trkpt>
      <trkpt lat="50.658060" lon="6.412886">
        <ele>430.330000</ele>
        <time>2009-10-18T09:53:18Z</time>
      </trkpt>
      <trkpt lat="50.657974" lon="6.412736">
        <ele>431.770000</ele>
        <time>2009-10-18T09:53:28Z</time>
      </trkpt>
      <trkpt lat="50.657731" lon="6.412723">
        <ele>433.690000</ele>
        <time>2009-10-18T09:53:43Z</time>
      </trkpt>
      <trkpt lat="50.657516" lon="6.412715">
        <ele>435.130000</ele>
        <time>2009-10-18T09:53:59Z</time>
      </trkpt>
      <trkpt lat="50.657319" lon="6.412771">
        <ele>434.650000</ele>
        <time>2009-10-18T09:54:14Z</time>
      </trkpt>
      <trkpt lat="50.657164" lon="6.412813">
        <ele>434.650000</ele>
        <time>2009-10-18T09:54:26Z</time>
      </trkpt>
      <trkpt lat="50.657016" lon="6.412879">
        <ele>434.650000</ele>
        <time>2009-10-18T09:54:41Z</time>
      </trkpt>
      <trkpt lat="50.656889" lon="6.412948">
        <ele>434.650000</ele>
        <time>2009-10-18T09:54:55Z</time>
      </trkpt>
      <trkpt lat="50.656831" lon="6.412965">
        <ele>434.650000</ele>
        <time>2009-10-18T09:55:00Z</time>
      </trkpt>
      <trkpt lat="50.656799" lon="6.412995">
        <ele>435.130000</ele>
        <time>2009-10-18T09:55:04Z</time>
      </trkpt>
      <trkpt lat="50.656743" lon="6.413056"/>
      <trkpt lat="50.656768" lon="6.413106"/>
      <trkpt lat="50.656775" lon="6.413126"/>
      <trkpt lat="50.656812" lon="6.413175"/>
      <trkpt lat="50.656800" lon="6.413265"/>
      <trkpt lat="50.656712" lon="6.413503"/>
      <trkpt lat="50.656649" lon="6.413443"/>
      <trkpt lat="50.656485" lon="6.413443"/>
      <trkpt lat="50.656372" lon="6.413443"/>
      <trkpt lat="50.656246" lon="6.413403"/>
      <trkpt lat="50.656108" lon="6.413334"/>
      <trkpt lat="50.655837" lon="6.413287"/>
      <trkpt lat="50.655540" lon="6.413011"/>
      <trkpt lat="50.655460" lon="6.412926"/>
      <trkpt lat="50.655096" lon="6.413075"/>
      <trkpt lat="50.654948" lon="6.413139"/>
      <trkpt lat="50.654759" lon="6.413309"/>
      <trkpt lat="50.654476" lon="6.413330"/>
      <trkpt lat="50.654341" lon="6.413351"/>
      <trkpt lat="50.654153" lon="6.413436"/>
      <trkpt lat="50.654031" lon="6.413627"/>
      <trkpt lat="50.653924" lon="6.413755"/>
      <trkpt lat="50.653694" lon="6.413670"/>
      <trkpt lat="50.653681" lon="6.413670"/>
      <trkpt lat="50.653398" lon="6.413394"/>
      <trkpt lat="50.653384" lon="6.413351"/>
      <trkpt lat="50.653034" lon="6.412969"/>
      <trkpt lat="50.652765" lon="6.412862"/>
      <trkpt lat="50.652509" lon="6.412820"/>
      <trkpt lat="50.652226" lon="6.412862"/>
      <trkpt lat="50.652212" lon="6.412884"/>
      <trkpt lat="50.651997" lon="6.413011"/>
      <trkpt lat="50.651660" lon="6.413202"/>
      <trkpt lat="50.651255" lon="6.413202"/>
      <trkpt lat="50.651013" lon="6.413202"/>
      <trkpt lat="50.650811" lon="6.413287"/>
      <trkpt lat="50.650730" lon="6.413649"/>
      <trkpt lat="50.650784" lon="6.414052"/>
      <trkpt lat="50.650865" lon="6.414456"/>
      <trkpt lat="50.650838" lon="6.414711"/>
      <trkpt lat="50.650838" lon="6.414796"/>
      <trkpt lat="50.650946" lon="6.415221"/>
      <trkpt lat="50.651202" lon="6.415370"/>
      <trkpt lat="50.651498" lon="6.415179"/>
      <trkpt lat="50.651768" lon="6.415200"/>
      <trkpt lat="50.652104" lon="6.415221"/>
      <trkpt lat="50.652414" lon="6.415519"/>
      <trkpt lat="50.652643" lon="6.415816"/>
      <trkpt lat="50.652926" lon="6.416369"/>
      <trkpt lat="50.653223" lon="6.416688"/>
      <trkpt lat="50.653331" lon="6.416985"/>
      <trkpt lat="50.653277" lon="6.417028"/>
      <trkpt lat="50.653263" lon="6.417453"/>
      <trkpt lat="50.653102" lon="6.417772"/>
      <trkpt lat="50.653088" lon="6.417772"/>
      <trkpt lat="50.652873" lon="6.417984"/>
      <trkpt lat="50.652684" lon="6.418303"/>
      <trkpt lat="50.652549" lon="6.418707"/>
      <trkpt lat="50.652401" lon="6.419217"/>
      <trkpt lat="50.652441" lon="6.419557"/>
      <trkpt lat="50.652293" lon="6.419876"/>
      <trkpt lat="50.652239" lon="6.420577"/>
      <trkpt lat="50.652239" lon="6.420598"/>
      <trkpt lat="50.652024" lon="6.421023"/>
      <trkpt lat="50.652037" lon="6.421661"/>
      <trkpt lat="50.652104" lon="6.422107"/>
      <trkpt lat="50.652118" lon="6.422681"/>
      <trkpt lat="50.652118" lon="6.422703"/>
      <trkpt lat="50.652172" lon="6.423191"/>
      <trkpt lat="50.652104" lon="6.423553"/>
      <trkpt lat="50.652010" lon="6.423638"/>
      <trkpt lat="50.651943" lon="6.423723"/>
      <trkpt lat="50.651862" lon="6.423850"/>
      <trkpt lat="50.651808" lon="6.423956"/>
      <trkpt lat="50.651619" lon="6.424488"/>
      <trkpt lat="50.651363" lon="6.424977"/>
      <trkpt lat="50.651175" lon="6.425423"/>
      <trkpt lat="50.650919" lon="6.425869"/>
      <trkpt lat="50.650811" lon="6.426294"/>
      <trkpt lat="50.650973" lon="6.426422"/>
      <trkpt lat="50.651255" lon="6.426507"/>
      <trkpt lat="50.651727" lon="6.426656"/>
      <trkpt lat="50.651997" lon="6.426804"/>
      <trkpt lat="50.652212" lon="6.427017"/>
    </trkseg>
  </trk>

</gpx>
